Time;durP1;ratioP1;P1;durP2;ratioP2;P2;SDS_P1;SDS_P2;PMS_P1;PMS_P2;Temp;Humidity;BMP_temperature;BMP_pressure;BME280_temperature;BME280_humidity;BME280_pressure;Samples;Min_cycle;Max_cycle;Signal;HPM_P1;HPM_P2
2023/03/09 00:02:12;;;;;;;29.13;19.38;;;;;;;;;;5064344;28;20813;-82
2023/03/09 00:04:40;;;;;;;28.77;19.07;;;;;;;;;;5065515;28;20993;-81
2023/03/09 00:07:07;;;;;;;28.45;19.13;;;;;;;;;;5065795;28;20498;-82
2023/03/09 00:09:34;;;;;;;29.20;19.17;;;;;;;;;;5066623;28;20431;-82
2023/03/09 00:12:01;;;;;;;28.02;19.38;;;;;;;;;;5066997;28;20417;-81
2023/03/09 00:14:28;;;;;;;29.15;19.70;;;;;;;;;;5065638;28;20437;-81
2023/03/09 00:16:54;;;;;;;29.48;18.77;;;;;;;;;;5062173;28;22469;-81
2023/03/09 00:19:26;;;;;;;26.45;18.00;;;;;;;;;;5064032;28;20427;-82
2023/03/09 00:21:53;;;;;;;27.85;18.30;;;;;;;;;;5065501;28;20414;-82
2023/03/09 00:24:26;;;;;;;27.70;19.10;;;;;;;;;;5063718;28;20425;-81
2023/03/09 00:26:53;;;;;;;29.40;18.60;;;;;;;;;;5066334;28;20411;-82
2023/03/09 00:29:19;;;;;;;28.75;18.70;;;;;;;;;;5065142;28;20428;-81
2023/03/09 00:31:46;;;;;;;27.63;19.10;;;;;;;;;;5061799;28;20482;-83
2023/03/09 00:34:16;;;;;;;29.55;18.10;;;;;;;;;;5066898;28;20455;-82
2023/03/09 00:36:43;;;;;;;28.02;17.73;;;;;;;;;;5068421;28;20492;-82
2023/03/09 00:39:10;;;;;;;25.35;17.75;;;;;;;;;;5065624;28;20432;-81
2023/03/09 00:41:37;;;;;;;31.27;19.42;;;;;;;;;;5065144;28;20435;-81
2023/03/09 00:44:04;;;;;;;27.13;18.67;;;;;;;;;;5063699;28;20435;-82
2023/03/09 00:46:32;;;;;;;27.42;18.23;;;;;;;;;;5066574;28;20418;-81
2023/03/09 00:48:58;;;;;;;29.65;18.33;;;;;;;;;;5065380;28;20427;-81
2023/03/09 00:51:25;;;;;;;27.98;18.10;;;;;;;;;;5063799;28;20424;-82
2023/03/09 00:53:52;;;;;;;27.60;18.58;;;;;;;;;;5064526;28;20436;-82
2023/03/09 00:56:19;;;;;;;25.98;17.42;;;;;;;;;;5063124;28;20908;-81
2023/03/09 00:58:47;;;;;;;31.77;18.98;;;;;;;;;;5062022;28;20421;-81
2023/03/09 01:01:15;;;;;;;29.52;17.80;;;;;;;;;;5064190;28;20442;-81
2023/03/09 01:03:41;;;;;;;27.73;18.48;;;;;;;;;;5063942;28;20422;-81
2023/03/09 01:06:08;;;;;;;31.95;17.90;;;;;;;;;;5064863;28;20785;-81
2023/03/09 01:08:35;;;;;;;24.15;17.20;;;;;;;;;;5063027;28;20428;-82
2023/03/09 01:11:01;;;;;;;26.20;16.98;;;;;;;;;;5065621;28;20411;-81
2023/03/09 01:13:28;;;;;;;25.95;16.77;;;;;;;;;;5065273;28;20425;-83
2023/03/09 01:15:55;;;;;;;26.67;16.95;;;;;;;;;;5064957;28;20423;-81
2023/03/09 01:18:23;;;;;;;27.55;17.23;;;;;;;;;;5064069;28;20425;-82
2023/03/09 01:20:49;;;;;;;24.67;16.35;;;;;;;;;;5063133;28;20427;-81
2023/03/09 01:23:16;;;;;;;25.92;16.02;;;;;;;;;;5062478;28;20423;-81
2023/03/09 01:25:42;;;;;;;26.58;16.38;;;;;;;;;;5066920;28;20431;-82
2023/03/09 01:28:08;;;;;;;26.55;16.33;;;;;;;;;;5065262;28;20427;-82
2023/03/09 01:30:35;;;;;;;23.55;16.00;;;;;;;;;;5061572;28;20441;-81
2023/03/09 01:33:02;;;;;;;26.33;16.50;;;;;;;;;;5064604;28;20420;-81
2023/03/09 01:35:29;;;;;;;26.25;16.00;;;;;;;;;;5067070;28;20439;-81
2023/03/09 01:37:55;;;;;;;27.05;16.08;;;;;;;;;;5060420;28;20424;-81
2023/03/09 01:40:22;;;;;;;22.50;15.32;;;;;;;;;;5061116;28;20425;-82
2023/03/09 01:42:54;;;;;;;23.95;15.50;;;;;;;;;;5064463;28;20794;-81
2023/03/09 01:45:39;;;;;;;25.35;15.23;;;;;;;;;;5063785;28;20475;-82
2023/03/09 01:48:07;;;;;;;25.30;16.20;;;;;;;;;;5063238;28;20762;-82
2023/03/09 01:50:35;;;;;;;24.07;15.90;;;;;;;;;;5061979;28;20409;-81
2023/03/09 01:53:11;;;;;;;23.10;15.60;;;;;;;;;;5060402;28;20427;-81
2023/03/09 01:55:39;;;;;;;24.48;14.82;;;;;;;;;;5065550;28;20435;-81
2023/03/09 01:58:08;;;;;;;26.95;15.77;;;;;;;;;;5063996;28;20427;-82
2023/03/09 02:00:37;;;;;;;23.25;14.73;;;;;;;;;;5063305;28;20434;-82
2023/03/09 02:03:05;;;;;;;22.17;14.20;;;;;;;;;;5063545;28;20423;-82
2023/03/09 02:05:36;;;;;;;21.63;14.15;;;;;;;;;;5060193;28;20805;-82
2023/03/09 02:08:04;;;;;;;24.92;14.32;;;;;;;;;;5061317;28;20454;-82
2023/03/09 02:10:32;;;;;;;22.83;14.90;;;;;;;;;;5061891;28;20537;-81
2023/03/09 02:13:02;;;;;;;26.43;15.93;;;;;;;;;;5065415;28;20781;-81
2023/03/09 02:15:28;;;;;;;21.50;14.70;;;;;;;;;;5068405;28;20431;-81
2023/03/09 02:17:55;;;;;;;21.85;14.48;;;;;;;;;;5064122;28;20427;-82
2023/03/09 02:20:24;;;;;;;24.33;15.18;;;;;;;;;;5064183;28;20797;-82
2023/03/09 02:22:52;;;;;;;23.30;14.25;;;;;;;;;;5064041;28;20428;-81
2023/03/09 02:25:22;;;;;;;22.20;14.40;;;;;;;;;;5064680;28;20433;-82
2023/03/09 02:27:51;;;;;;;21.73;14.20;;;;;;;;;;5064946;28;20430;-81
2023/03/09 02:30:18;;;;;;;21.63;14.98;;;;;;;;;;5059631;28;20433;-82
2023/03/09 02:32:44;;;;;;;21.77;14.80;;;;;;;;;;5060607;28;20444;-79
2023/03/09 02:35:11;;;;;;;21.02;13.65;;;;;;;;;;5060277;28;20425;-81
2023/03/09 02:37:39;;;;;;;23.60;15.80;;;;;;;;;;5064290;28;20423;-83
2023/03/09 02:40:10;;;;;;;20.55;14.85;;;;;;;;;;5062790;28;20966;-82
2023/03/09 02:42:39;;;;;;;23.33;15.30;;;;;;;;;;5063362;28;20417;-81
2023/03/09 02:45:07;;;;;;;23.08;15.00;;;;;;;;;;5064079;28;20939;-82
2023/03/09 02:47:34;;;;;;;23.00;14.75;;;;;;;;;;5064782;28;20426;-82
2023/03/09 02:50:02;;;;;;;24.02;15.32;;;;;;;;;;5066922;28;20462;-82
2023/03/09 02:52:28;;;;;;;23.90;15.80;;;;;;;;;;5064814;28;20428;-81
2023/03/09 02:54:54;;;;;;;21.42;14.30;;;;;;;;;;5068693;28;20429;-82
2023/03/09 02:57:21;;;;;;;24.45;15.82;;;;;;;;;;5068071;28;20910;-80
2023/03/09 02:59:47;;;;;;;23.40;15.32;;;;;;;;;;5069100;28;20458;-80
2023/03/09 03:02:15;;;;;;;20.80;14.50;;;;;;;;;;5070338;28;20432;-80
2023/03/09 03:04:41;;;;;;;23.95;15.32;;;;;;;;;;5069928;28;20433;-80
2023/03/09 03:07:10;;;;;;;22.80;14.87;;;;;;;;;;5063897;28;20461;-80
2023/03/09 03:09:36;;;;;;;24.95;14.45;;;;;;;;;;5068567;28;20420;-80
2023/03/09 03:12:02;;;;;;;23.58;15.45;;;;;;;;;;5066471;28;20411;-80
2023/03/09 03:14:29;;;;;;;23.40;15.13;;;;;;;;;;5068867;28;20427;-81
2023/03/09 03:16:55;;;;;;;22.83;14.40;;;;;;;;;;5070745;28;20423;-80
2023/03/09 03:19:23;;;;;;;22.60;15.27;;;;;;;;;;5070880;28;20431;-80
2023/03/09 03:21:49;;;;;;;22.02;14.95;;;;;;;;;;5068948;28;20409;-82
2023/03/09 03:24:16;;;;;;;24.52;14.82;;;;;;;;;;5068977;28;20424;-80
2023/03/09 03:26:43;;;;;;;21.48;14.57;;;;;;;;;;5070741;28;20770;-80
2023/03/09 03:29:09;;;;;;;22.17;14.32;;;;;;;;;;5070150;28;20538;-80
2023/03/09 03:31:36;;;;;;;24.45;15.90;;;;;;;;;;5069496;28;20435;-80
2023/03/09 03:34:02;;;;;;;23.25;16.35;;;;;;;;;;5070693;28;20435;-80
2023/03/09 03:36:30;;;;;;;22.40;13.93;;;;;;;;;;5067989;28;20426;-79
2023/03/09 03:38:56;;;;;;;24.85;14.77;;;;;;;;;;5070340;28;20428;-81
2023/03/09 03:41:22;;;;;;;23.30;15.40;;;;;;;;;;5072497;28;20429;-82
2023/03/09 03:43:49;;;;;;;22.38;15.00;;;;;;;;;;5068009;28;20418;-81
2023/03/09 03:46:15;;;;;;;23.77;15.30;;;;;;;;;;5069614;28;20756;-82
2023/03/09 03:48:43;;;;;;;24.85;14.98;;;;;;;;;;5045742;28;20756;-82
2023/03/09 03:51:10;;;;;;;25.08;15.48;;;;;;;;;;5045773;28;20423;-82
2023/03/09 03:53:38;;;;;;;23.90;15.60;;;;;;;;;;5062770;28;20425;-82
2023/03/09 03:56:05;;;;;;;25.65;16.35;;;;;;;;;;5071069;28;20841;-81
2023/03/09 03:58:31;;;;;;;24.27;16.15;;;;;;;;;;5062929;28;20428;-81
2023/03/09 04:00:57;;;;;;;21.98;15.00;;;;;;;;;;5065525;28;20498;-82
2023/03/09 04:03:24;;;;;;;21.75;14.70;;;;;;;;;;5064899;28;20436;-81
2023/03/09 04:05:50;;;;;;;25.48;16.00;;;;;;;;;;5065723;28;20434;-82
2023/03/09 04:08:17;;;;;;;24.67;16.90;;;;;;;;;;5062848;28;20429;-82
2023/03/09 04:10:44;;;;;;;24.95;16.42;;;;;;;;;;5065322;28;20420;-81
2023/03/09 04:13:11;;;;;;;26.43;16.53;;;;;;;;;;5064474;28;20426;-81
2023/03/09 04:15:37;;;;;;;24.17;16.00;;;;;;;;;;5064219;28;20410;-81
2023/03/09 04:18:04;;;;;;;26.45;17.02;;;;;;;;;;5065712;28;20952;-81
2023/03/09 04:20:31;;;;;;;24.08;16.10;;;;;;;;;;5067390;28;20439;-82
2023/03/09 04:22:58;;;;;;;24.48;15.50;;;;;;;;;;5066948;28;20430;-83
2023/03/09 04:25:24;;;;;;;26.97;16.73;;;;;;;;;;5067329;28;20430;-81
2023/03/09 04:27:53;;;;;;;28.30;17.40;;;;;;;;;;5064372;28;20432;-81
2023/03/09 04:30:20;;;;;;;25.17;15.45;;;;;;;;;;5069174;28;20413;-81
2023/03/09 04:32:47;;;;;;;24.90;16.45;;;;;;;;;;5064594;28;20413;-83
2023/03/09 04:35:13;;;;;;;24.55;16.17;;;;;;;;;;5070374;28;20427;-81
2023/03/09 04:37:39;;;;;;;24.97;16.10;;;;;;;;;;5067768;28;20924;-81
2023/03/09 04:40:06;;;;;;;25.13;16.55;;;;;;;;;;5065829;28;20428;-81
2023/03/09 04:42:33;;;;;;;27.60;18.40;;;;;;;;;;5065100;28;20408;-81
2023/03/09 04:45:01;;;;;;;28.90;18.47;;;;;;;;;;5068642;28;20411;-82
2023/03/09 04:47:27;;;;;;;31.97;21.40;;;;;;;;;;5065992;28;20425;-81
2023/03/09 04:49:54;;;;;;;31.88;19.95;;;;;;;;;;5063783;28;20428;-81
2023/03/09 04:52:20;;;;;;;27.20;18.27;;;;;;;;;;5063240;28;20559;-82
2023/03/09 04:54:47;;;;;;;26.88;17.90;;;;;;;;;;5067019;28;20419;-82
2023/03/09 04:57:14;;;;;;;25.83;17.70;;;;;;;;;;5066634;28;20424;-82
2023/03/09 04:59:40;;;;;;;23.08;15.60;;;;;;;;;;5063631;28;20428;-81
2023/03/09 05:02:08;;;;;;;23.02;15.40;;;;;;;;;;5064713;28;20435;-81
2023/03/09 05:04:36;;;;;;;27.17;16.05;;;;;;;;;;5061315;28;20931;-82
2023/03/09 05:07:03;;;;;;;24.70;16.17;;;;;;;;;;5070288;28;20411;-81
2023/03/09 05:09:29;;;;;;;22.70;16.27;;;;;;;;;;5066976;28;20808;-80
2023/03/09 05:11:56;;;;;;;22.05;15.02;;;;;;;;;;5062228;28;20409;-82
2023/03/09 05:14:22;;;;;;;24.17;15.70;;;;;;;;;;5068836;28;20531;-81
2023/03/09 05:16:51;;;;;;;21.17;14.60;;;;;;;;;;5064002;28;20413;-79
2023/03/09 05:19:18;;;;;;;23.70;15.77;;;;;;;;;;5067911;28;20439;-81
2023/03/09 05:21:45;;;;;;;23.90;15.45;;;;;;;;;;5065366;28;20429;-81
2023/03/09 05:24:11;;;;;;;24.10;15.32;;;;;;;;;;5066728;28;20431;-82
2023/03/09 05:26:39;;;;;;;23.35;14.73;;;;;;;;;;5063612;28;20433;-83
2023/03/09 05:29:05;;;;;;;24.45;15.50;;;;;;;;;;5062909;28;20798;-81
2023/03/09 05:31:34;;;;;;;23.37;15.20;;;;;;;;;;5066378;28;20531;-82
2023/03/09 05:34:00;;;;;;;27.03;15.67;;;;;;;;;;5066220;28;20413;-83
2023/03/09 05:36:28;;;;;;;27.42;15.35;;;;;;;;;;5062378;28;20437;-82
2023/03/09 05:38:54;;;;;;;22.05;15.23;;;;;;;;;;5065822;28;20934;-81
2023/03/09 05:41:21;;;;;;;22.50;15.20;;;;;;;;;;5066246;28;20504;-81
2023/03/09 05:43:48;;;;;;;26.02;15.93;;;;;;;;;;5064812;28;20432;-81
2023/03/09 05:46:15;;;;;;;24.40;15.55;;;;;;;;;;5065184;28;20999;-82
2023/03/09 05:48:42;;;;;;;24.70;16.15;;;;;;;;;;5067909;28;20422;-81
2023/03/09 05:51:10;;;;;;;24.77;15.30;;;;;;;;;;5064306;28;20433;-79
2023/03/09 05:53:38;;;;;;;24.65;14.63;;;;;;;;;;5066684;28;20427;-81
2023/03/09 05:56:05;;;;;;;25.60;16.00;;;;;;;;;;5064870;28;20921;-81
2023/03/09 05:58:31;;;;;;;24.30;16.13;;;;;;;;;;5063419;28;20464;-81
2023/03/09 06:00:58;;;;;;;24.00;15.60;;;;;;;;;;5066742;28;20467;-81
2023/03/09 06:03:24;;;;;;;25.50;16.17;;;;;;;;;;5063546;28;20427;-81
2023/03/09 06:05:58;;;;;;;24.08;15.05;;;;;;;;;;5065720;28;20465;-81
2023/03/09 06:08:25;;;;;;;24.05;15.75;;;;;;;;;;5064901;28;20425;-84
2023/03/09 06:10:53;;;;;;;23.75;15.90;;;;;;;;;;5066377;28;20453;-81
2023/03/09 06:13:21;;;;;;;23.45;15.27;;;;;;;;;;5060571;28;20429;-82
2023/03/09 06:15:47;;;;;;;23.53;15.60;;;;;;;;;;5064119;28;20918;-82
2023/03/09 06:18:14;;;;;;;24.77;15.30;;;;;;;;;;5066872;28;20421;-82
2023/03/09 06:20:40;;;;;;;23.40;16.00;;;;;;;;;;5061974;28;20436;-81
2023/03/09 06:23:06;;;;;;;25.15;16.35;;;;;;;;;;5063247;28;20428;-81
2023/03/09 06:25:33;;;;;;;23.05;15.60;;;;;;;;;;5067663;28;20429;-81
2023/03/09 06:28:01;;;;;;;24.25;15.95;;;;;;;;;;5067269;28;20427;-81
2023/03/09 06:30:28;;;;;;;21.40;16.20;;;;;;;;;;5068607;28;20419;-81
2023/03/09 06:32:56;;;;;;;25.92;15.98;;;;;;;;;;5070022;28;21002;-81
2023/03/09 06:35:22;;;;;;;22.08;15.85;;;;;;;;;;5072091;28;20431;-81
2023/03/09 06:37:49;;;;;;;24.67;16.17;;;;;;;;;;5070352;28;20421;-81
2023/03/09 06:40:15;;;;;;;25.05;16.23;;;;;;;;;;5065835;28;20443;-81
2023/03/09 06:42:41;;;;;;;25.25;16.25;;;;;;;;;;5068226;28;20426;-82
2023/03/09 06:45:10;;;;;;;24.52;17.13;;;;;;;;;;5072797;28;20411;-81
2023/03/09 06:47:37;;;;;;;26.45;16.90;;;;;;;;;;5067688;28;20420;-81
2023/03/09 06:50:04;;;;;;;21.75;15.00;;;;;;;;;;5070048;28;20417;-81
2023/03/09 06:52:32;;;;;;;22.60;15.52;;;;;;;;;;5070143;28;20492;-81
2023/03/09 06:54:58;;;;;;;23.15;15.60;;;;;;;;;;5066695;28;20416;-82
2023/03/09 06:57:24;;;;;;;22.83;16.63;;;;;;;;;;5071151;28;21005;-81
2023/03/09 06:59:51;;;;;;;23.02;15.18;;;;;;;;;;5072547;28;20439;-81
2023/03/09 07:02:18;;;;;;;23.67;14.93;;;;;;;;;;5068497;28;20424;-81
2023/03/09 07:04:45;;;;;;;20.55;14.32;;;;;;;;;;5067946;28;20431;-81
2023/03/09 07:07:12;;;;;;;20.85;13.75;;;;;;;;;;5068569;28;20469;-82
2023/03/09 07:09:38;;;;;;;21.83;14.50;;;;;;;;;;5069599;28;20436;-82
2023/03/09 07:12:05;;;;;;;20.60;14.68;;;;;;;;;;5063222;28;20415;-81
2023/03/09 07:14:31;;;;;;;20.85;14.77;;;;;;;;;;5067663;28;20414;-81
2023/03/09 07:16:58;;;;;;;22.10;13.83;;;;;;;;;;5068213;28;20452;-81
2023/03/09 07:19:25;;;;;;;21.45;14.93;;;;;;;;;;5067274;28;20460;-81
2023/03/09 07:21:54;;;;;;;24.98;14.48;;;;;;;;;;5066219;28;20419;-81
2023/03/09 07:24:21;;;;;;;21.15;15.07;;;;;;;;;;5065053;28;20432;-81
2023/03/09 07:26:49;;;;;;;20.13;14.35;;;;;;;;;;5067597;28;20470;-81
2023/03/09 07:29:16;;;;;;;19.25;13.95;;;;;;;;;;5064980;28;20868;-81
2023/03/09 07:31:42;;;;;;;19.88;13.88;;;;;;;;;;5062567;28;20413;-81
2023/03/09 07:34:09;;;;;;;21.77;13.40;;;;;;;;;;5067567;28;20420;-81
2023/03/09 07:36:36;;;;;;;20.65;14.50;;;;;;;;;;5068459;28;20782;-81
2023/03/09 07:39:03;;;;;;;21.27;14.65;;;;;;;;;;5067580;28;20435;-79
2023/03/09 07:41:29;;;;;;;21.50;13.98;;;;;;;;;;5068356;28;20411;-81
2023/03/09 07:43:55;;;;;;;20.80;14.45;;;;;;;;;;5066171;28;20417;-81
2023/03/09 07:46:23;;;;;;;22.13;14.37;;;;;;;;;;5064036;28;20917;-81
2023/03/09 07:48:50;;;;;;;22.88;14.20;;;;;;;;;;5065747;28;20433;-81
2023/03/09 07:51:16;;;;;;;19.15;13.57;;;;;;;;;;5065164;28;20941;-81
2023/03/09 07:53:44;;;;;;;21.03;14.30;;;;;;;;;;5064215;28;20421;-81
2023/03/09 07:56:10;;;;;;;23.38;15.23;;;;;;;;;;5065639;28;20420;-82
2023/03/09 07:58:38;;;;;;;22.40;15.07;;;;;;;;;;5060590;28;20411;-81
2023/03/09 08:01:06;;;;;;;22.45;14.70;;;;;;;;;;5070377;28;20433;-81
2023/03/09 08:03:34;;;;;;;23.30;14.05;;;;;;;;;;5065863;28;20421;-81
2023/03/09 08:06:05;;;;;;;22.02;14.95;;;;;;;;;;5065212;28;20459;-81
2023/03/09 08:08:32;;;;;;;23.48;14.98;;;;;;;;;;5061721;28;20486;-81
2023/03/09 08:10:59;;;;;;;20.08;14.73;;;;;;;;;;5068501;28;20446;-81
2023/03/09 08:13:26;;;;;;;20.05;13.70;;;;;;;;;;5061409;28;20417;-81
2023/03/09 08:15:53;;;;;;;18.88;12.40;;;;;;;;;;5066504;28;20409;-81
2023/03/09 08:18:20;;;;;;;19.65;13.32;;;;;;;;;;5062606;28;20431;-81
2023/03/09 08:20:46;;;;;;;18.87;13.53;;;;;;;;;;5065847;28;20505;-81
2023/03/09 08:23:15;;;;;;;19.85;12.40;;;;;;;;;;5064702;28;20776;-81
2023/03/09 08:25:41;;;;;;;19.48;12.57;;;;;;;;;;5062834;28;20963;-81
2023/03/09 08:28:10;;;;;;;16.67;12.57;;;;;;;;;;5061191;28;20520;-81
2023/03/09 08:30:38;;;;;;;20.67;12.73;;;;;;;;;;5065588;28;20428;-81
2023/03/09 08:33:04;;;;;;;18.40;12.13;;;;;;;;;;5065599;28;20423;-81
2023/03/09 08:35:32;;;;;;;18.80;12.37;;;;;;;;;;5064801;28;20858;-81
2023/03/09 08:37:58;;;;;;;18.15;11.60;;;;;;;;;;5063238;28;20420;-81
2023/03/09 08:40:25;;;;;;;14.93;10.80;;;;;;;;;;5065033;28;20439;-81
2023/03/09 08:42:51;;;;;;;13.70;9.80;;;;;;;;;;5061314;28;20416;-81
2023/03/09 08:45:19;;;;;;;18.50;11.07;;;;;;;;;;5062652;28;20475;-81
2023/03/09 08:47:46;;;;;;;19.08;12.43;;;;;;;;;;5065202;28;20424;-81
2023/03/09 08:50:12;;;;;;;17.88;10.90;;;;;;;;;;5063818;28;20945;-81
2023/03/09 08:52:40;;;;;;;15.68;11.23;;;;;;;;;;5063104;28;20444;-81
2023/03/09 08:55:08;;;;;;;14.27;9.95;;;;;;;;;;5065257;28;20468;-81
2023/03/09 08:57:34;;;;;;;14.68;10.18;;;;;;;;;;5063568;28;20795;-81
2023/03/09 09:00:01;;;;;;;12.85;10.02;;;;;;;;;;5065662;28;20450;-81
2023/03/09 09:02:29;;;;;;;14.23;10.27;;;;;;;;;;5061678;28;20421;-79
2023/03/09 09:04:57;;;;;;;16.75;11.20;;;;;;;;;;5068391;28;20538;-81
2023/03/09 09:07:24;;;;;;;14.70;9.40;;;;;;;;;;5064421;28;20424;-81
2023/03/09 09:09:51;;;;;;;13.73;8.90;;;;;;;;;;5062343;28;20458;-81
2023/03/09 09:12:17;;;;;;;12.98;9.57;;;;;;;;;;5064820;28;20439;-80
2023/03/09 09:14:43;;;;;;;12.57;9.30;;;;;;;;;;5062176;28;21090;-81
2023/03/09 09:17:11;;;;;;;11.25;8.45;;;;;;;;;;5063797;28;20421;-80
2023/03/09 09:19:39;;;;;;;12.65;7.90;;;;;;;;;;5063196;28;20431;-80
2023/03/09 09:22:06;;;;;;;10.07;7.53;;;;;;;;;;5060529;28;20433;-81
2023/03/09 09:24:35;;;;;;;10.32;8.07;;;;;;;;;;5063803;28;20429;-80
2023/03/09 09:27:01;;;;;;;12.52;8.50;;;;;;;;;;5062413;28;20928;-81
2023/03/09 09:29:27;;;;;;;10.48;7.53;;;;;;;;;;5062058;28;20427;-81
2023/03/09 09:31:54;;;;;;;11.80;8.00;;;;;;;;;;5065427;28;20411;-81
2023/03/09 09:34:21;;;;;;;10.07;7.50;;;;;;;;;;5062277;28;20773;-80
2023/03/09 09:36:49;;;;;;;11.43;7.82;;;;;;;;;;5061047;28;20416;-81
2023/03/09 09:39:15;;;;;;;10.02;7.50;;;;;;;;;;5065678;28;20434;-81
2023/03/09 09:41:44;;;;;;;10.82;7.10;;;;;;;;;;5064153;28;20425;-81
2023/03/09 09:44:12;;;;;;;8.30;6.70;;;;;;;;;;5060633;28;20423;-80
2023/03/09 09:46:40;;;;;;;9.88;6.90;;;;;;;;;;5063063;28;20419;-81
2023/03/09 09:49:06;;;;;;;9.60;7.10;;;;;;;;;;5061269;28;20413;-81
2023/03/09 09:51:57;;;;;;;9.90;7.45;;;;;;;;;;5061385;28;20450;-81
2023/03/09 09:54:30;;;;;;;7.50;6.05;;;;;;;;;;5062713;28;20411;-81
2023/03/09 09:56:59;;;;;;;9.40;6.90;;;;;;;;;;5062484;28;20993;-81
2023/03/09 09:59:31;;;;;;;10.57;6.93;;;;;;;;;;5066335;28;20450;-79
2023/03/09 10:01:59;;;;;;;10.18;6.85;;;;;;;;;;5068811;28;20419;-79
2023/03/09 10:04:29;;;;;;;10.97;6.80;;;;;;;;;;5067061;28;20497;-79
2023/03/09 10:06:58;;;;;;;8.95;6.60;;;;;;;;;;5067129;28;20418;-79
2023/03/09 10:09:27;;;;;;;10.97;7.00;;;;;;;;;;5065268;28;20499;-81
2023/03/09 10:11:55;;;;;;;8.95;6.85;;;;;;;;;;5066650;28;20421;-79
2023/03/09 10:14:25;;;;;;;8.30;7.03;;;;;;;;;;5066223;28;20427;-79
2023/03/09 10:16:55;;;;;;;9.38;6.30;;;;;;;;;;5065520;28;20417;-79
2023/03/09 10:19:25;;;;;;;11.55;6.82;;;;;;;;;;5066222;28;20438;-79
2023/03/09 10:21:54;;;;;;;7.85;6.55;;;;;;;;;;5068077;28;20404;-79
2023/03/09 10:24:22;;;;;;;7.60;6.18;;;;;;;;;;5063601;28;20794;-79
2023/03/09 10:26:53;;;;;;;8.95;6.53;;;;;;;;;;5065549;28;20431;-79
2023/03/09 10:29:21;;;;;;;7.00;6.03;;;;;;;;;;5065414;28;20427;-78
2023/03/09 10:31:53;;;;;;;12.15;7.78;;;;;;;;;;5068753;28;20415;-81
2023/03/09 10:34:23;;;;;;;8.90;6.53;;;;;;;;;;5066887;28;20431;-81
2023/03/09 10:36:58;;;;;;;7.65;6.25;;;;;;;;;;5067160;28;20976;-81
2023/03/09 10:39:24;;;;;;;8.98;6.70;;;;;;;;;;5063217;28;20435;-81
2023/03/09 10:41:59;;;;;;;7.75;6.50;;;;;;;;;;5066369;28;20411;-81
2023/03/09 10:44:26;;;;;;;9.45;6.80;;;;;;;;;;5067244;28;20429;-81
2023/03/09 10:46:58;;;;;;;11.00;7.50;;;;;;;;;;5062834;28;20482;-81
2023/03/09 10:49:24;;;;;;;9.55;6.72;;;;;;;;;;5065537;28;20421;-81
2023/03/09 10:52:00;;;;;;;8.60;6.75;;;;;;;;;;5064084;28;20806;-81
2023/03/09 10:54:29;;;;;;;10.52;6.80;;;;;;;;;;5068247;28;20412;-80
2023/03/09 10:56:57;;;;;;;9.35;7.05;;;;;;;;;;5066249;28;20416;-81
2023/03/09 10:59:25;;;;;;;9.02;6.45;;;;;;;;;;5063547;28;20415;-81
2023/03/09 11:01:52;;;;;;;9.63;7.70;;;;;;;;;;5065351;28;20502;-80
2023/03/09 11:04:29;;;;;;;9.93;7.30;;;;;;;;;;5068146;28;20423;-80
2023/03/09 11:06:56;;;;;;;9.82;7.20;;;;;;;;;;5063720;28;20421;-80
2023/03/09 11:09:26;;;;;;;8.83;7.20;;;;;;;;;;5066072;28;20432;-80
2023/03/09 11:11:53;;;;;;;9.57;7.15;;;;;;;;;;5067368;28;20409;-81
2023/03/09 11:14:22;;;;;;;8.30;6.72;;;;;;;;;;5066626;28;20421;-80
2023/03/09 11:16:51;;;;;;;10.10;7.30;;;;;;;;;;5066182;28;20415;-80
2023/03/09 11:19:18;;;;;;;9.63;7.50;;;;;;;;;;5061718;28;20454;-80
2023/03/09 11:21:50;;;;;;;11.85;7.47;;;;;;;;;;5065673;28;20419;-80
2023/03/09 11:24:17;;;;;;;7.20;6.30;;;;;;;;;;5066335;28;20804;-80
2023/03/09 11:26:45;;;;;;;11.02;7.15;;;;;;;;;;5065573;28;20441;-80
2023/03/09 11:29:16;;;;;;;10.55;7.43;;;;;;;;;;5063755;28;20460;-80
2023/03/09 11:31:43;;;;;;;9.82;7.45;;;;;;;;;;5066540;28;20420;-80
2023/03/09 11:34:14;;;;;;;8.73;7.03;;;;;;;;;;5063966;28;20924;-80
2023/03/09 11:36:43;;;;;;;9.77;7.38;;;;;;;;;;5068482;28;20427;-80
2023/03/09 11:39:14;;;;;;;10.43;6.93;;;;;;;;;;5069652;28;20786;-80
2023/03/09 11:41:41;;;;;;;9.30;7.43;;;;;;;;;;5066671;28;20435;-81
2023/03/09 11:44:13;;;;;;;9.45;7.13;;;;;;;;;;5065138;28;20427;-80
2023/03/09 11:46:41;;;;;;;10.40;7.80;;;;;;;;;;5068352;28;20435;-80
2023/03/09 11:49:08;;;;;;;10.70;7.53;;;;;;;;;;5066819;28;20419;-80
2023/03/09 11:51:38;;;;;;;11.40;7.63;;;;;;;;;;5065973;28;20415;-80
2023/03/09 11:54:11;;;;;;;9.73;7.30;;;;;;;;;;5067182;28;20410;-80
2023/03/09 11:56:40;;;;;;;9.50;6.93;;;;;;;;;;5067184;28;20432;-80
2023/03/09 11:59:08;;;;;;;7.78;6.13;;;;;;;;;;5066564;28;20471;-83
2023/03/09 12:01:38;;;;;;;10.35;6.80;;;;;;;;;;5066965;28;20428;-81
2023/03/09 12:04:05;;;;;;;9.70;7.72;;;;;;;;;;5070204;28;20443;-81
2023/03/09 12:06:41;;;;;;;8.02;6.50;;;;;;;;;;5065887;28;20412;-81
2023/03/09 12:09:11;;;;;;;8.73;6.60;;;;;;;;;;5068227;28;20437;-80
2023/03/09 12:11:39;;;;;;;11.65;6.60;;;;;;;;;;5067602;28;20432;-80
2023/03/09 12:14:11;;;;;;;7.43;6.40;;;;;;;;;;5061326;28;20417;-80
2023/03/09 12:16:41;;;;;;;11.18;7.55;;;;;;;;;;5065387;28;20805;-81
2023/03/09 12:19:13;;;;;;;9.30;7.05;;;;;;;;;;5065899;28;20847;-80
2023/03/09 12:21:42;;;;;;;8.37;7.27;;;;;;;;;;5064848;28;20429;-81
2023/03/09 12:24:26;;;;;;;9.27;6.82;;;;;;;;;;5061551;28;20425;-80
2023/03/09 12:26:57;;;;;;;10.25;6.97;;;;;;;;;;5067036;28;20436;-80
2023/03/09 12:29:24;;;;;;;9.55;7.32;;;;;;;;;;5065905;28;20425;-80
2023/03/09 12:32:06;;;;;;;10.40;8.20;;;;;;;;;;5070529;28;20422;-80
2023/03/09 12:34:40;;;;;;;9.15;7.22;;;;;;;;;;5054936;28;20918;-81
2023/03/09 12:37:24;;;;;;;8.73;7.03;;;;;;;;;;5063657;28;20470;-81
2023/03/09 12:39:59;;;;;;;9.30;6.93;;;;;;;;;;5071935;28;20440;-80
2023/03/09 12:42:35;;;;;;;8.77;7.10;;;;;;;;;;5061952;28;20916;-80
2023/03/09 12:45:02;;;;;;;8.70;7.28;;;;;;;;;;5065497;28;20436;-80
2023/03/09 12:47:36;;;;;;;11.98;8.55;;;;;;;;;;5061374;28;20423;-80
2023/03/09 12:50:04;;;;;;;9.75;7.70;;;;;;;;;;5064499;28;20678;-81
2023/03/09 12:52:39;;;;;;;9.90;7.32;;;;;;;;;;5063842;28;20418;-80
2023/03/09 12:55:14;;;;;;;10.52;8.43;;;;;;;;;;5060784;28;20444;-80
2023/03/09 12:57:41;;;;;;;12.27;7.90;;;;;;;;;;5061442;28;20415;-80
2023/03/09 13:00:21;;;;;;;9.98;7.63;;;;;;;;;;5062957;28;20922;-80
2023/03/09 13:02:51;;;;;;;10.55;7.90;;;;;;;;;;5058766;28;20435;-80
2023/03/09 13:05:31;;;;;;;11.38;8.30;;;;;;;;;;5062632;28;20421;-80
2023/03/09 13:08:24;;;;;;;10.27;8.00;;;;;;;;;;5058794;28;20416;-80
2023/03/09 13:11:13;;;;;;;10.68;8.20;;;;;;;;;;5063946;28;20486;-80
2023/03/09 13:13:40;;;;;;;9.60;7.93;;;;;;;;;;5062881;28;20429;-80
2023/03/09 13:16:25;;;;;;;8.77;7.65;;;;;;;;;;5062269;28;20433;-80
2023/03/09 13:19:19;;;;;;;10.60;8.20;;;;;;;;;;5062291;28;20555;-80
2023/03/09 13:21:47;;;;;;;13.07;8.27;;;;;;;;;;5065885;28;20810;-80
2023/03/09 13:24:16;;;;;;;12.38;8.45;;;;;;;;;;5064695;28;20947;-80
2023/03/09 13:26:45;;;;;;;12.00;8.60;;;;;;;;;;5065972;28;21056;-80
2023/03/09 13:29:15;;;;;;;11.23;8.15;;;;;;;;;;5064349;28;20423;-80
2023/03/09 13:31:41;;;;;;;11.18;8.32;;;;;;;;;;5064256;28;20752;-80
2023/03/09 13:34:12;;;;;;;11.18;8.48;;;;;;;;;;5065428;28;20515;-82
2023/03/09 13:36:42;;;;;;;11.87;8.60;;;;;;;;;;5063246;28;20415;-80
2023/03/09 13:39:14;;;;;;;10.90;8.77;;;;;;;;;;5066214;28;20440;-80
2023/03/09 13:41:41;;;;;;;10.40;7.90;;;;;;;;;;5063182;28;20436;-80
2023/03/09 13:44:14;;;;;;;11.07;8.73;;;;;;;;;;5068106;28;20433;-80
2023/03/09 13:46:42;;;;;;;12.45;9.30;;;;;;;;;;5062365;28;20415;-80
2023/03/09 13:49:13;;;;;;;10.95;8.65;;;;;;;;;;5046948;28;20415;-80
2023/03/09 13:51:48;;;;;;;11.25;8.35;;;;;;;;;;5062868;28;20431;-80
2023/03/09 13:54:20;;;;;;;11.05;8.52;;;;;;;;;;5064381;28;20485;-80
2023/03/09 13:56:57;;;;;;;10.95;8.93;;;;;;;;;;5063907;28;20441;-80
2023/03/09 13:59:25;;;;;;;11.98;8.88;;;;;;;;;;5068995;28;20421;-80
2023/03/09 14:01:52;;;;;;;12.95;9.68;;;;;;;;;;5066130;28;20415;-80
2023/03/09 14:04:18;;;;;;;10.70;8.48;;;;;;;;;;5065827;28;20410;-80
2023/03/09 14:06:45;;;;;;;13.07;9.13;;;;;;;;;;5068374;28;20427;-80
2023/03/09 14:09:24;;;;;;;12.15;9.00;;;;;;;;;;5067260;28;20413;-81
2023/03/09 14:11:51;;;;;;;12.48;9.35;;;;;;;;;;5069610;28;20415;-80
2023/03/09 14:14:20;;;;;;;14.50;9.48;;;;;;;;;;5064805;28;20437;-81
2023/03/09 14:16:54;;;;;;;11.95;9.05;;;;;;;;;;5067796;28;20426;-82
2023/03/09 14:19:22;;;;;;;14.43;9.50;;;;;;;;;;5072834;28;20807;-81
2023/03/09 14:21:50;;;;;;;13.80;8.82;;;;;;;;;;5067450;28;20396;-80
2023/03/09 14:24:22;;;;;;;12.95;8.50;;;;;;;;;;5070130;28;20433;-79
2023/03/09 14:26:49;;;;;;;12.18;9.10;;;;;;;;;;5064776;28;20425;-79
2023/03/09 14:29:20;;;;;;;13.15;10.10;;;;;;;;;;5070368;28;20446;-80
2023/03/09 14:31:47;;;;;;;11.00;8.95;;;;;;;;;;5071756;28;20442;-81